Roadside, Pennsylvania
Current Conditions -  °F | °C
As of 2:53 PM on Monday 24 Nov 2014 (Local Time) from KRYT Reporting Station
Clear Clear  
Wind Chill: 67°   Ceiling: Unl
Heat Index: 67°   Visibility: 10mi
Dew Point: 51°   Wind: 9mph
Humidity: 57%   Direction: 240°WSW
Pressure: 29.56"   Gusts: 17mph
Location:  39.7777°N, 77.5693°W
Report Text: KRYT 241953Z AUTO 24008G15KT 10SM CLR 19/11 A2956 RMK AO2 SLP004 T01940106 $
Loading
Personal Weather Stations






























Interactive Weather Map New forecast layout! Learn more

10-Day Weather Forecast

Advertisements
Track Severe Weather on mobile